sensor_id;sensor_type;location;lat;lon;timestamp;P1;durP1;ratioP1;P2;durP2;ratioP2
64682;SDS011;51107;47.652;19.016;2023-09-19T00:00:50;4.00;;;2.40;;
64682;SDS011;51107;47.652;19.016;2023-09-19T00:03:19;4.15;;;2.85;;
64682;SDS011;51107;47.652;19.016;2023-09-19T00:05:48;3.78;;;2.30;;
64682;SDS011;51107;47.652;19.016;2023-09-19T00:08:18;7.90;;;2.58;;
64682;SDS011;51107;47.652;19.016;2023-09-19T00:10:51;3.55;;;2.30;;
64682;SDS011;51107;47.652;19.016;2023-09-19T00:13:21;8.88;;;2.20;;
64682;SDS011;51107;47.652;19.016;2023-09-19T00:15:49;3.60;;;2.30;;
64682;SDS011;51107;47.652;19.016;2023-09-19T00:18:18;7.45;;;2.20;;
64682;SDS011;51107;47.652;19.016;2023-09-19T00:20:50;6.80;;;2.50;;
64682;SDS011;51107;47.652;19.016;2023-09-19T00:23:20;6.78;;;2.22;;
64682;SDS011;51107;47.652;19.016;2023-09-19T00:25:49;6.32;;;2.72;;
64682;SDS011;51107;47.652;19.016;2023-09-19T00:28:18;7.87;;;3.37;;
64682;SDS011;51107;47.652;19.016;2023-09-19T00:30:48;4.28;;;2.62;;
64682;SDS011;51107;47.652;19.016;2023-09-19T00:33:19;6.18;;;2.83;;
64682;SDS011;51107;47.652;19.016;2023-09-19T00:35:48;8.10;;;2.90;;
64682;SDS011;51107;47.652;19.016;2023-09-19T00:38:17;5.00;;;2.85;;
64682;SDS011;51107;47.652;19.016;2023-09-19T00:40:49;4.22;;;2.42;;
64682;SDS011;51107;47.652;19.016;2023-09-19T00:43:21;6.62;;;2.90;;
64682;SDS011;51107;47.652;19.016;2023-09-19T00:45:54;5.53;;;3.00;;
64682;SDS011;51107;47.652;19.016;2023-09-19T00:48:23;5.47;;;2.80;;
64682;SDS011;51107;47.652;19.016;2023-09-19T00:50:56;4.15;;;2.70;;
64682;SDS011;51107;47.652;19.016;2023-09-19T00:53:26;5.62;;;2.70;;
64682;SDS011;51107;47.652;19.016;2023-09-19T00:55:55;5.55;;;2.55;;
64682;SDS011;51107;47.652;19.016;2023-09-19T00:58:24;7.72;;;2.70;;
64682;SDS011;51107;47.652;19.016;2023-09-19T01:00:52;6.97;;;2.83;;
64682;SDS011;51107;47.652;19.016;2023-09-19T01:03:21;4.32;;;2.80;;
64682;SDS011;51107;47.652;19.016;2023-09-19T01:05:51;9.43;;;2.70;;
64682;SDS011;51107;47.652;19.016;2023-09-19T01:08:19;6.03;;;3.12;;
64682;SDS011;51107;47.652;19.016;2023-09-19T01:16:44;3.80;;;2.53;;
64682;SDS011;51107;47.652;19.016;2023-09-19T01:31:09;5.75;;;2.53;;
64682;SDS011;51107;47.652;19.016;2023-09-19T01:33:58;4.57;;;2.58;;
64682;SDS011;51107;47.652;19.016;2023-09-19T01:36:37;8.38;;;3.05;;
64682;SDS011;51107;47.652;19.016;2023-09-19T01:39:07;4.70;;;2.70;;
64682;SDS011;51107;47.652;19.016;2023-09-19T01:47:32;4.65;;;2.45;;
64682;SDS011;51107;47.652;19.016;2023-09-19T01:52:51;4.87;;;2.87;;
64682;SDS011;51107;47.652;19.016;2023-09-19T01:55:25;6.60;;;3.10;;
64682;SDS011;51107;47.652;19.016;2023-09-19T02:00:44;4.87;;;2.75;;
64682;SDS011;51107;47.652;19.016;2023-09-19T02:03:20;5.37;;;3.08;;
64682;SDS011;51107;47.652;19.016;2023-09-19T02:05:52;4.65;;;3.00;;
64682;SDS011;51107;47.652;19.016;2023-09-19T02:08:22;4.70;;;3.10;;
64682;SDS011;51107;47.652;19.016;2023-09-19T02:10:53;7.40;;;2.72;;
64682;SDS011;51107;47.652;19.016;2023-09-19T02:13:22;7.97;;;2.75;;
64682;SDS011;51107;47.652;19.016;2023-09-19T02:15:56;6.72;;;3.10;;
64682;SDS011;51107;47.652;19.016;2023-09-19T02:18:25;5.82;;;2.60;;
64682;SDS011;51107;47.652;19.016;2023-09-19T02:20:54;4.60;;;3.25;;
64682;SDS011;51107;47.652;19.016;2023-09-19T02:23:24;4.75;;;2.75;;
64682;SDS011;51107;47.652;19.016;2023-09-19T02:25:53;4.53;;;2.67;;
64682;SDS011;51107;47.652;19.016;2023-09-19T02:28:22;4.05;;;2.50;;
64682;SDS011;51107;47.652;19.016;2023-09-19T02:30:51;4.20;;;2.78;;
64682;SDS011;51107;47.652;19.016;2023-09-19T02:33:19;3.20;;;2.40;;
64682;SDS011;51107;47.652;19.016;2023-09-19T02:35:47;4.85;;;2.70;;
64682;SDS011;51107;47.652;19.016;2023-09-19T02:38:16;4.72;;;2.85;;
64682;SDS011;51107;47.652;19.016;2023-09-19T02:40:49;5.12;;;3.05;;
64682;SDS011;51107;47.652;19.016;2023-09-19T02:43:18;6.50;;;2.60;;
64682;SDS011;51107;47.652;19.016;2023-09-19T02:45:49;7.53;;;2.80;;
64682;SDS011;51107;47.652;19.016;2023-09-19T02:48:18;5.28;;;2.72;;
64682;SDS011;51107;47.652;19.016;2023-09-19T02:50:50;3.80;;;2.50;;
64682;SDS011;51107;47.652;19.016;2023-09-19T02:53:19;6.18;;;2.92;;
64682;SDS011;51107;47.652;19.016;2023-09-19T02:55:48;7.47;;;2.80;;
64682;SDS011;51107;47.652;19.016;2023-09-19T02:58:16;4.57;;;2.87;;
64682;SDS011;51107;47.652;19.016;2023-09-19T03:00:47;5.18;;;2.75;;
64682;SDS011;51107;47.652;19.016;2023-09-19T03:03:18;6.53;;;2.62;;
64682;SDS011;51107;47.652;19.016;2023-09-19T03:05:47;6.78;;;2.92;;
64682;SDS011;51107;47.652;19.016;2023-09-19T03:08:17;8.07;;;3.10;;
64682;SDS011;51107;47.652;19.016;2023-09-19T03:10:47;3.95;;;2.50;;
64682;SDS011;51107;47.652;19.016;2023-09-19T03:13:16;5.97;;;3.12;;
64682;SDS011;51107;47.652;19.016;2023-09-19T03:15:44;5.90;;;2.62;;
64682;SDS011;51107;47.652;19.016;2023-09-19T03:18:16;4.72;;;2.72;;
64682;SDS011;51107;47.652;19.016;2023-09-19T03:20:51;4.25;;;2.87;;
64682;SDS011;51107;47.652;19.016;2023-09-19T03:23:23;4.12;;;2.60;;
64682;SDS011;51107;47.652;19.016;2023-09-19T03:25:51;6.00;;;2.80;;
64682;SDS011;51107;47.652;19.016;2023-09-19T03:28:24;5.57;;;2.83;;
64682;SDS011;51107;47.652;19.016;2023-09-19T03:31:03;5.65;;;2.75;;
64682;SDS011;51107;47.652;19.016;2023-09-19T03:33:34;5.10;;;2.75;;
64682;SDS011;51107;47.652;19.016;2023-09-19T03:36:03;4.47;;;2.87;;
64682;SDS011;51107;47.652;19.016;2023-09-19T03:38:35;4.57;;;2.58;;
64682;SDS011;51107;47.652;19.016;2023-09-19T03:41:03;6.10;;;2.83;;
64682;SDS011;51107;47.652;19.016;2023-09-19T03:43:33;5.85;;;2.85;;
64682;SDS011;51107;47.652;19.016;2023-09-19T03:46:03;4.22;;;2.65;;
64682;SDS011;51107;47.652;19.016;2023-09-19T03:48:33;8.57;;;3.15;;
64682;SDS011;51107;47.652;19.016;2023-09-19T03:51:02;4.87;;;2.78;;
64682;SDS011;51107;47.652;19.016;2023-09-19T03:53:31;4.10;;;2.80;;
64682;SDS011;51107;47.652;19.016;2023-09-19T03:55:59;3.28;;;2.40;;
64682;SDS011;51107;47.652;19.016;2023-09-19T03:58:28;9.70;;;3.05;;
64682;SDS011;51107;47.652;19.016;2023-09-19T04:00:57;3.97;;;2.30;;
64682;SDS011;51107;47.652;19.016;2023-09-19T04:03:27;4.43;;;2.60;;
64682;SDS011;51107;47.652;19.016;2023-09-19T04:06:04;3.87;;;2.42;;
64682;SDS011;51107;47.652;19.016;2023-09-19T04:08:32;4.82;;;2.67;;
64682;SDS011;51107;47.652;19.016;2023-09-19T04:11:00;4.97;;;2.62;;
64682;SDS011;51107;47.652;19.016;2023-09-19T04:13:28;6.12;;;2.15;;
64682;SDS011;51107;47.652;19.016;2023-09-19T04:15:58;3.30;;;1.90;;
64682;SDS011;51107;47.652;19.016;2023-09-19T04:18:26;2.90;;;1.10;;
64682;SDS011;51107;47.652;19.016;2023-09-19T04:20:54;1.95;;;1.10;;
64682;SDS011;51107;47.652;19.016;2023-09-19T04:23:24;1.62;;;1.00;;
64682;SDS011;51107;47.652;19.016;2023-09-19T04:25:52;1.10;;;0.80;;
64682;SDS011;51107;47.652;19.016;2023-09-19T04:28:21;0.85;;;0.68;;
64682;SDS011;51107;47.652;19.016;2023-09-19T04:30:50;0.50;;;0.50;;
64682;SDS011;51107;47.652;19.016;2023-09-19T04:33:18;0.73;;;0.65;;
64682;SDS011;51107;47.652;19.016;2023-09-19T04:35:48;0.50;;;0.50;;
64682;SDS011;51107;47.652;19.016;2023-09-19T04:38:20;3.03;;;0.70;;
64682;SDS011;51107;47.652;19.016;2023-09-19T04:40:49;0.70;;;0.70;;
64682;SDS011;51107;47.652;19.016;2023-09-19T04:43:18;3.47;;;0.52;;
64682;SDS011;51107;47.652;19.016;2023-09-19T04:45:46;0.70;;;0.50;;
64682;SDS011;51107;47.652;19.016;2023-09-19T04:48:14;1.02;;;0.70;;
64682;SDS011;51107;47.652;19.016;2023-09-19T04:50:43;7.85;;;0.90;;
64682;SDS011;51107;47.652;19.016;2023-09-19T04:53:12;0.57;;;0.47;;
64682;SDS011;51107;47.652;19.016;2023-09-19T04:55:40;0.50;;;0.50;;
64682;SDS011;51107;47.652;19.016;2023-09-19T04:58:08;2.72;;;0.55;;
64682;SDS011;51107;47.652;19.016;2023-09-19T05:00:37;1.02;;;0.50;;
64682;SDS011;51107;47.652;19.016;2023-09-19T05:03:05;1.30;;;0.60;;
64682;SDS011;51107;47.652;19.016;2023-09-19T05:05:34;0.50;;;0.50;;
64682;SDS011;51107;47.652;19.016;2023-09-19T05:08:02;1.83;;;0.40;;
64682;SDS011;51107;47.652;19.016;2023-09-19T05:10:33;1.25;;;0.60;;
64682;SDS011;51107;47.652;19.016;2023-09-19T05:13:06;0.75;;;0.68;;
64682;SDS011;51107;47.652;19.016;2023-09-19T05:15:35;1.98;;;0.60;;
64682;SDS011;51107;47.652;19.016;2023-09-19T05:18:04;0.47;;;0.47;;
64682;SDS011;51107;47.652;19.016;2023-09-19T05:20:34;1.05;;;0.52;;
64682;SDS011;51107;47.652;19.016;2023-09-19T05:23:04;0.70;;;0.50;;
64682;SDS011;51107;47.652;19.016;2023-09-19T05:25:39;4.03;;;0.50;;
64682;SDS011;51107;47.652;19.016;2023-09-19T05:28:09;1.55;;;0.40;;
64682;SDS011;51107;47.652;19.016;2023-09-19T05:30:42;0.32;;;0.32;;
64682;SDS011;51107;47.652;19.016;2023-09-19T05:33:15;2.00;;;0.35;;
64682;SDS011;51107;47.652;19.016;2023-09-19T05:35:47;0.22;;;0.20;;
64682;SDS011;51107;47.652;19.016;2023-09-19T05:38:16;1.17;;;0.57;;
64682;SDS011;51107;47.652;19.016;2023-09-19T05:40:47;0.60;;;0.30;;
64682;SDS011;51107;47.652;19.016;2023-09-19T05:43:15;0.65;;;0.30;;
64682;SDS011;51107;47.652;19.016;2023-09-19T05:45:44;0.45;;;0.20;;
64682;SDS011;51107;47.652;19.016;2023-09-19T05:48:13;1.12;;;0.50;;
64682;SDS011;51107;47.652;19.016;2023-09-19T05:50:43;0.28;;;0.28;;
64682;SDS011;51107;47.652;19.016;2023-09-19T05:53:16;0.73;;;0.30;;
64682;SDS011;51107;47.652;19.016;2023-09-19T05:55:46;0.30;;;0.20;;
64682;SDS011;51107;47.652;19.016;2023-09-19T05:58:14;2.28;;;0.40;;
64682;SDS011;51107;47.652;19.016;2023-09-19T06:00:45;1.27;;;0.60;;
64682;SDS011;51107;47.652;19.016;2023-09-19T06:03:15;0.50;;;0.30;;
64682;SDS011;51107;47.652;19.016;2023-09-19T06:05:45;0.35;;;0.35;;
64682;SDS011;51107;47.652;19.016;2023-09-19T06:08:17;0.37;;;0.37;;
64682;SDS011;51107;47.652;19.016;2023-09-19T06:10:46;0.20;;;0.20;;
64682;SDS011;51107;47.652;19.016;2023-09-19T06:13:14;0.52;;;0.30;;
64682;SDS011;51107;47.652;19.016;2023-09-19T06:15:43;0.55;;;0.40;;
64682;SDS011;51107;47.652;19.016;2023-09-19T06:18:12;0.30;;;0.30;;
64682;SDS011;51107;47.652;19.016;2023-09-19T06:20:46;2.42;;;0.50;;
64682;SDS011;51107;47.652;19.016;2023-09-19T06:23:15;1.52;;;0.50;;
64682;SDS011;51107;47.652;19.016;2023-09-19T06:25:43;0.40;;;0.30;;
64682;SDS011;51107;47.652;19.016;2023-09-19T06:28:12;0.32;;;0.30;;
64682;SDS011;51107;47.652;19.016;2023-09-19T06:30:40;0.30;;;0.30;;
64682;SDS011;51107;47.652;19.016;2023-09-19T06:33:09;1.42;;;0.45;;
64682;SDS011;51107;47.652;19.016;2023-09-19T06:35:40;0.30;;;0.30;;
64682;SDS011;51107;47.652;19.016;2023-09-19T06:38:09;1.87;;;0.30;;
64682;SDS011;51107;47.652;19.016;2023-09-19T06:40:41;0.30;;;0.30;;
64682;SDS011;51107;47.652;19.016;2023-09-19T06:43:13;0.30;;;0.30;;
64682;SDS011;51107;47.652;19.016;2023-09-19T06:45:42;0.30;;;0.30;;
64682;SDS011;51107;47.652;19.016;2023-09-19T06:48:10;1.00;;;0.30;;
64682;SDS011;51107;47.652;19.016;2023-09-19T06:50:40;0.30;;;0.30;;
64682;SDS011;51107;47.652;19.016;2023-09-19T06:53:09;0.43;;;0.22;;
64682;SDS011;51107;47.652;19.016;2023-09-19T06:55:38;0.10;;;0.10;;
64682;SDS011;51107;47.652;19.016;2023-09-19T06:58:06;0.68;;;0.20;;
64682;SDS011;51107;47.652;19.016;2023-09-19T07:00:34;0.20;;;0.20;;
64682;SDS011;51107;47.652;19.016;2023-09-19T07:03:08;0.20;;;0.20;;
64682;SDS011;51107;47.652;19.016;2023-09-19T07:05:40;0.17;;;0.17;;
64682;SDS011;51107;47.652;19.016;2023-09-19T07:08:09;1.75;;;0.30;;
64682;SDS011;51107;47.652;19.016;2023-09-19T07:10:41;0.20;;;0.20;;
64682;SDS011;51107;47.652;19.016;2023-09-19T07:13:17;0.43;;;0.20;;
64682;SDS011;51107;47.652;19.016;2023-09-19T07:15:45;0.13;;;0.13;;
64682;SDS011;51107;47.652;19.016;2023-09-19T07:18:18;0.30;;;0.30;;
64682;SDS011;51107;47.652;19.016;2023-09-19T07:20:47;0.17;;;0.13;;
64682;SDS011;51107;47.652;19.016;2023-09-19T07:23:18;0.20;;;0.20;;
64682;SDS011;51107;47.652;19.016;2023-09-19T07:25:49;0.85;;;0.20;;
64682;SDS011;51107;47.652;19.016;2023-09-19T07:28:17;0.77;;;0.20;;
64682;SDS011;51107;47.652;19.016;2023-09-19T07:30:46;0.15;;;0.10;;
64682;SDS011;51107;47.652;19.016;2023-09-19T07:33:14;0.28;;;0.28;;
64682;SDS011;51107;47.652;19.016;2023-09-19T07:35:45;0.20;;;0.20;;
64682;SDS011;51107;47.652;19.016;2023-09-19T07:38:14;0.47;;;0.20;;
64682;SDS011;51107;47.652;19.016;2023-09-19T07:40:42;0.20;;;0.20;;
64682;SDS011;51107;47.652;19.016;2023-09-19T07:43:11;0.10;;;0.10;;
64682;SDS011;51107;47.652;19.016;2023-09-19T07:45:40;0.22;;;0.20;;
64682;SDS011;51107;47.652;19.016;2023-09-19T07:48:09;0.73;;;0.22;;
64682;SDS011;51107;47.652;19.016;2023-09-19T07:50:43;0.30;;;0.30;;
64682;SDS011;51107;47.652;19.016;2023-09-19T07:53:11;0.35;;;0.35;;
64682;SDS011;51107;47.652;19.016;2023-09-19T07:55:41;0.20;;;0.20;;
64682;SDS011;51107;47.652;19.016;2023-09-19T07:58:10;0.52;;;0.30;;
64682;SDS011;51107;47.652;19.016;2023-09-19T08:00:38;0.73;;;0.35;;
64682;SDS011;51107;47.652;19.016;2023-09-19T08:03:07;0.60;;;0.40;;
64682;SDS011;51107;47.652;19.016;2023-09-19T08:05:44;0.25;;;0.25;;
64682;SDS011;51107;47.652;19.016;2023-09-19T08:08:14;0.20;;;0.17;;
64682;SDS011;51107;47.652;19.016;2023-09-19T08:10:43;2.62;;;0.40;;
64682;SDS011;51107;47.652;19.016;2023-09-19T08:13:14;0.50;;;0.37;;
64682;SDS011;51107;47.652;19.016;2023-09-19T08:15:45;0.30;;;0.30;;
64682;SDS011;51107;47.652;19.016;2023-09-19T08:18:14;0.10;;;0.10;;
64682;SDS011;51107;47.652;19.016;2023-09-19T08:20:48;0.30;;;0.30;;
64682;SDS011;51107;47.652;19.016;2023-09-19T08:23:19;0.62;;;0.20;;
64682;SDS011;51107;47.652;19.016;2023-09-19T08:25:47;0.40;;;0.30;;
64682;SDS011;51107;47.652;19.016;2023-09-19T08:28:16;1.20;;;0.52;;
64682;SDS011;51107;47.652;19.016;2023-09-19T08:30:50;1.35;;;0.32;;
64682;SDS011;51107;47.652;19.016;2023-09-19T08:33:19;1.77;;;0.30;;
64682;SDS011;51107;47.652;19.016;2023-09-19T08:35:47;0.30;;;0.30;;
64682;SDS011;51107;47.652;19.016;2023-09-19T08:38:15;0.82;;;0.40;;
64682;SDS011;51107;47.652;19.016;2023-09-19T08:40:44;0.60;;;0.35;;
64682;SDS011;51107;47.652;19.016;2023-09-19T08:43:12;0.37;;;0.32;;
64682;SDS011;51107;47.652;19.016;2023-09-19T08:45:41;0.30;;;0.30;;
64682;SDS011;51107;47.652;19.016;2023-09-19T08:50:49;0.47;;;0.40;;
64682;SDS011;51107;47.652;19.016;2023-09-19T08:53:26;0.75;;;0.50;;
64682;SDS011;51107;47.652;19.016;2023-09-19T08:55:56;2.05;;;0.52;;
64682;SDS011;51107;47.652;19.016;2023-09-19T08:58:25;0.52;;;0.47;;
64682;SDS011;51107;47.652;19.016;2023-09-19T09:00:58;0.82;;;0.57;;
64682;SDS011;51107;47.652;19.016;2023-09-19T09:03:30;0.62;;;0.50;;
64682;SDS011;51107;47.652;19.016;2023-09-19T09:06:01;0.98;;;0.40;;
64682;SDS011;51107;47.652;19.016;2023-09-19T09:08:30;1.25;;;0.52;;
64682;SDS011;51107;47.652;19.016;2023-09-19T09:10:59;1.00;;;0.65;;
64682;SDS011;51107;47.652;19.016;2023-09-19T09:13:28;0.65;;;0.40;;
64682;SDS011;51107;47.652;19.016;2023-09-19T09:15:57;0.20;;;0.20;;
64682;SDS011;51107;47.652;19.016;2023-09-19T09:18:28;1.30;;;0.50;;
64682;SDS011;51107;47.652;19.016;2023-09-19T09:20:58;0.85;;;0.40;;
64682;SDS011;51107;47.652;19.016;2023-09-19T09:23:26;0.40;;;0.40;;
64682;SDS011;51107;47.652;19.016;2023-09-19T09:25:57;0.35;;;0.30;;
64682;SDS011;51107;47.652;19.016;2023-09-19T09:28:35;2.10;;;0.57;;
64682;SDS011;51107;47.652;19.016;2023-09-19T09:31:24;0.30;;;0.30;;
64682;SDS011;51107;47.652;19.016;2023-09-19T09:33:54;0.55;;;0.50;;
64682;SDS011;51107;47.652;19.016;2023-09-19T09:36:35;0.43;;;0.32;;
64682;SDS011;51107;47.652;19.016;2023-09-19T09:39:05;3.12;;;0.55;;
64682;SDS011;51107;47.652;19.016;2023-09-19T09:41:46;0.22;;;0.22;;
64682;SDS011;51107;47.652;19.016;2023-09-19T09:44:16;0.40;;;0.40;;
64682;SDS011;51107;47.652;19.016;2023-09-19T09:46:46;0.80;;;0.50;;
64682;SDS011;51107;47.652;19.016;2023-09-19T09:49:23;0.45;;;0.35;;
64682;SDS011;51107;47.652;19.016;2023-09-19T09:52:02;0.75;;;0.35;;
64682;SDS011;51107;47.652;19.016;2023-09-19T09:54:39;1.55;;;0.60;;
64682;SDS011;51107;47.652;19.016;2023-09-19T09:57:26;1.42;;;0.50;;
64682;SDS011;51107;47.652;19.016;2023-09-19T09:59:56;0.88;;;0.40;;
64682;SDS011;51107;47.652;19.016;2023-09-19T10:02:45;2.10;;;0.30;;
64682;SDS011;51107;47.652;19.016;2023-09-19T10:05:15;0.73;;;0.50;;
64682;SDS011;51107;47.652;19.016;2023-09-19T10:07:49;0.37;;;0.37;;
64682;SDS011;51107;47.652;19.016;2023-09-19T10:13:06;1.30;;;0.52;;
64682;SDS011;51107;47.652;19.016;2023-09-19T10:15:40;1.23;;;0.52;;
64682;SDS011;51107;47.652;19.016;2023-09-19T10:18:23;0.75;;;0.50;;
64682;SDS011;51107;47.652;19.016;2023-09-19T10:20:53;1.40;;;0.50;;
64682;SDS011;51107;47.652;19.016;2023-09-19T10:23:22;0.98;;;0.70;;
64682;SDS011;51107;47.652;19.016;2023-09-19T10:25:53;1.70;;;0.90;;
64682;SDS011;51107;47.652;19.016;2023-09-19T10:28:23;1.25;;;0.73;;
64682;SDS011;51107;47.652;19.016;2023-09-19T10:30:55;0.90;;;0.80;;
64682;SDS011;51107;47.652;19.016;2023-09-19T10:33:25;1.80;;;0.98;;
64682;SDS011;51107;47.652;19.016;2023-09-19T10:35:54;1.05;;;0.82;;
64682;SDS011;51107;47.652;19.016;2023-09-19T10:38:27;1.48;;;1.10;;
64682;SDS011;51107;47.652;19.016;2023-09-19T10:40:57;1.55;;;1.10;;
64682;SDS011;51107;47.652;19.016;2023-09-19T10:43:30;1.10;;;1.00;;
64682;SDS011;51107;47.652;19.016;2023-09-19T10:46:06;1.50;;;1.03;;
64682;SDS011;51107;47.652;19.016;2023-09-19T10:48:39;1.20;;;1.00;;
64682;SDS011;51107;47.652;19.016;2023-09-19T10:51:12;1.30;;;1.12;;
64682;SDS011;51107;47.652;19.016;2023-09-19T10:53:56;1.23;;;1.12;;
64682;SDS011;51107;47.652;19.016;2023-09-19T10:56:38;1.25;;;1.15;;
64682;SDS011;51107;47.652;19.016;2023-09-19T10:59:11;2.28;;;1.40;;
64682;SDS011;51107;47.652;19.016;2023-09-19T11:04:32;0.95;;;0.82;;
64682;SDS011;51107;47.652;19.016;2023-09-19T11:07:05;0.80;;;0.70;;
64682;SDS011;51107;47.652;19.016;2023-09-19T11:14:59;4.25;;;0.90;;
64682;SDS011;51107;47.652;19.016;2023-09-19T11:17:37;0.60;;;0.60;;
64682;SDS011;51107;47.652;19.016;2023-09-19T11:28:27;0.70;;;0.60;;
64682;SDS011;51107;47.652;19.016;2023-09-19T11:30:56;0.68;;;0.62;;
64682;SDS011;51107;47.652;19.016;2023-09-19T11:33:27;0.50;;;0.50;;
64682;SDS011;51107;47.652;19.016;2023-09-19T11:36:06;0.60;;;0.60;;
64682;SDS011;51107;47.652;19.016;2023-09-19T11:49:29;0.75;;;0.60;;
64682;SDS011;51107;47.652;19.016;2023-09-19T11:52:00;1.70;;;0.70;;
64682;SDS011;51107;47.652;19.016;2023-09-19T11:54:32;0.77;;;0.52;;
64682;SDS011;51107;47.652;19.016;2023-09-19T11:57:01;0.80;;;0.70;;
64682;SDS011;51107;47.652;19.016;2023-09-19T11:59:30;2.37;;;0.50;;
64682;SDS011;51107;47.652;19.016;2023-09-19T12:02:05;0.70;;;0.70;;
64682;SDS011;51107;47.652;19.016;2023-09-19T12:04:37;1.02;;;0.65;;
64682;SDS011;51107;47.652;19.016;2023-09-19T12:07:08;0.85;;;0.65;;
64682;SDS011;51107;47.652;19.016;2023-09-19T12:09:45;1.23;;;0.68;;
64682;SDS011;51107;47.652;19.016;2023-09-19T12:12:28;0.95;;;0.40;;
64682;SDS011;51107;47.652;19.016;2023-09-19T12:14:58;1.70;;;0.82;;
64682;SDS011;51107;47.652;19.016;2023-09-19T12:20:07;0.68;;;0.55;;
64682;SDS011;51107;47.652;19.016;2023-09-19T12:22:42;1.55;;;0.90;;
64682;SDS011;51107;47.652;19.016;2023-09-19T12:25:15;1.27;;;0.80;;
64682;SDS011;51107;47.652;19.016;2023-09-19T12:27:46;2.42;;;1.00;;
64682;SDS011;51107;47.652;19.016;2023-09-19T12:30:18;2.03;;;0.90;;
64682;SDS011;51107;47.652;19.016;2023-09-19T12:32:54;0.73;;;0.73;;
64682;SDS011;51107;47.652;19.016;2023-09-19T12:35:27;2.97;;;1.10;;
64682;SDS011;51107;47.652;19.016;2023-09-19T12:37:58;1.33;;;1.02;;
64682;SDS011;51107;47.652;19.016;2023-09-19T12:40:26;1.23;;;0.93;;
64682;SDS011;51107;47.652;19.016;2023-09-19T12:42:57;1.65;;;0.98;;
64682;SDS011;51107;47.652;19.016;2023-09-19T12:45:27;1.52;;;1.05;;
64682;SDS011;51107;47.652;19.016;2023-09-19T12:48:31;1.98;;;1.12;;
64682;SDS011;51107;47.652;19.016;2023-09-19T12:53:35;2.23;;;1.03;;
64682;SDS011;51107;47.652;19.016;2023-09-19T12:56:14;3.05;;;1.30;;
64682;SDS011;51107;47.652;19.016;2023-09-19T12:58:57;1.35;;;1.02;;
64682;SDS011;51107;47.652;19.016;2023-09-19T13:01:29;1.25;;;1.00;;
64682;SDS011;51107;47.652;19.016;2023-09-19T13:06:49;2.00;;;1.17;;
64682;SDS011;51107;47.652;19.016;2023-09-19T13:09:20;1.20;;;1.05;;
64682;SDS011;51107;47.652;19.016;2023-09-19T13:11:50;1.10;;;1.00;;
64682;SDS011;51107;47.652;19.016;2023-09-19T13:16:58;1.25;;;0.80;;
64682;SDS011;51107;47.652;19.016;2023-09-19T13:22:04;1.27;;;0.82;;
64682;SDS011;51107;47.652;19.016;2023-09-19T13:24:36;1.20;;;0.70;;
64682;SDS011;51107;47.652;19.016;2023-09-19T13:27:08;0.80;;;0.80;;
64682;SDS011;51107;47.652;19.016;2023-09-19T13:29:36;1.85;;;1.08;;
64682;SDS011;51107;47.652;19.016;2023-09-19T13:32:05;1.98;;;1.10;;
64682;SDS011;51107;47.652;19.016;2023-09-19T13:34:33;3.33;;;1.00;;
64682;SDS011;51107;47.652;19.016;2023-09-19T13:37:02;2.67;;;1.00;;
64682;SDS011;51107;47.652;19.016;2023-09-19T13:39:30;3.35;;;0.75;;
64682;SDS011;51107;47.652;19.016;2023-09-19T13:41:59;1.10;;;0.90;;
64682;SDS011;51107;47.652;19.016;2023-09-19T13:44:27;1.23;;;0.90;;
64682;SDS011;51107;47.652;19.016;2023-09-19T13:46:57;1.00;;;0.85;;
64682;SDS011;51107;47.652;19.016;2023-09-19T13:49:26;1.17;;;0.90;;
64682;SDS011;51107;47.652;19.016;2023-09-19T13:51:54;2.28;;;0.90;;
64682;SDS011;51107;47.652;19.016;2023-09-19T13:54:22;1.70;;;1.00;;
64682;SDS011;51107;47.652;19.016;2023-09-19T13:56:51;1.33;;;0.90;;
64682;SDS011;51107;47.652;19.016;2023-09-19T13:59:19;1.15;;;0.80;;
64682;SDS011;51107;47.652;19.016;2023-09-19T14:01:49;1.48;;;1.02;;
64682;SDS011;51107;47.652;19.016;2023-09-19T14:04:19;0.75;;;0.75;;
64682;SDS011;51107;47.652;19.016;2023-09-19T14:06:49;1.92;;;1.02;;
64682;SDS011;51107;47.652;19.016;2023-09-19T14:09:17;1.25;;;0.85;;
64682;SDS011;51107;47.652;19.016;2023-09-19T14:11:47;1.00;;;0.90;;
64682;SDS011;51107;47.652;19.016;2023-09-19T14:14:15;0.90;;;0.80;;
64682;SDS011;51107;47.652;19.016;2023-09-19T14:16:44;1.50;;;0.82;;
64682;SDS011;51107;47.652;19.016;2023-09-19T14:19:13;1.25;;;0.70;;
64682;SDS011;51107;47.652;19.016;2023-09-19T14:21:43;1.10;;;0.90;;
64682;SDS011;51107;47.652;19.016;2023-09-19T14:24:16;3.30;;;0.90;;
64682;SDS011;51107;47.652;19.016;2023-09-19T14:26:45;1.93;;;0.93;;
64682;SDS011;51107;47.652;19.016;2023-09-19T14:29:14;0.88;;;0.80;;
64682;SDS011;51107;47.652;19.016;2023-09-19T14:31:42;1.70;;;0.70;;
64682;SDS011;51107;47.652;19.016;2023-09-19T14:34:11;1.27;;;0.93;;
64682;SDS011;51107;47.652;19.016;2023-09-19T14:36:39;5.30;;;0.85;;
64682;SDS011;51107;47.652;19.016;2023-09-19T14:39:07;2.17;;;0.70;;
64682;SDS011;51107;47.652;19.016;2023-09-19T14:41:38;0.85;;;0.65;;
64682;SDS011;51107;47.652;19.016;2023-09-19T14:44:07;1.27;;;0.68;;
64682;SDS011;51107;47.652;19.016;2023-09-19T14:46:35;1.30;;;0.80;;
64682;SDS011;51107;47.652;19.016;2023-09-19T14:49:04;2.22;;;0.60;;
64682;SDS011;51107;47.652;19.016;2023-09-19T14:51:33;1.27;;;0.70;;
64682;SDS011;51107;47.652;19.016;2023-09-19T14:54:03;1.08;;;0.70;;
64682;SDS011;51107;47.652;19.016;2023-09-19T14:56:32;2.67;;;0.73;;
64682;SDS011;51107;47.652;19.016;2023-09-19T14:59:00;0.95;;;0.52;;
64682;SDS011;51107;47.652;19.016;2023-09-19T15:01:28;0.60;;;0.60;;
64682;SDS011;51107;47.652;19.016;2023-09-19T15:03:57;0.93;;;0.50;;
64682;SDS011;51107;47.652;19.016;2023-09-19T15:06:26;4.43;;;0.88;;
64682;SDS011;51107;47.652;19.016;2023-09-19T15:08:54;0.90;;;0.70;;
64682;SDS011;51107;47.652;19.016;2023-09-19T15:11:23;0.60;;;0.45;;
64682;SDS011;51107;47.652;19.016;2023-09-19T15:13:51;1.80;;;0.70;;
64682;SDS011;51107;47.652;19.016;2023-09-19T15:16:22;1.73;;;0.60;;
64682;SDS011;51107;47.652;19.016;2023-09-19T15:18:50;1.10;;;0.70;;
64682;SDS011;51107;47.652;19.016;2023-09-19T15:21:20;0.70;;;0.65;;
64682;SDS011;51107;47.652;19.016;2023-09-19T15:23:48;2.53;;;0.90;;
64682;SDS011;51107;47.652;19.016;2023-09-19T15:26:17;0.82;;;0.73;;
64682;SDS011;51107;47.652;19.016;2023-09-19T15:28:49;0.75;;;0.70;;
64682;SDS011;51107;47.652;19.016;2023-09-19T15:31:17;0.88;;;0.70;;
64682;SDS011;51107;47.652;19.016;2023-09-19T15:33:45;1.05;;;0.68;;
64682;SDS011;51107;47.652;19.016;2023-09-19T15:36:16;1.10;;;0.90;;
64682;SDS011;51107;47.652;19.016;2023-09-19T15:39:06;1.23;;;0.70;;
64682;SDS011;51107;47.652;19.016;2023-09-19T15:41:37;0.93;;;0.62;;
64682;SDS011;51107;47.652;19.016;2023-09-19T15:44:13;0.68;;;0.60;;
64682;SDS011;51107;47.652;19.016;2023-09-19T15:46:45;0.88;;;0.55;;
64682;SDS011;51107;47.652;19.016;2023-09-19T15:49:14;3.30;;;0.75;;
64682;SDS011;51107;47.652;19.016;2023-09-19T15:51:42;0.85;;;0.70;;
64682;SDS011;51107;47.652;19.016;2023-09-19T15:54:12;1.20;;;0.70;;
64682;SDS011;51107;47.652;19.016;2023-09-19T15:56:44;1.98;;;0.80;;
64682;SDS011;51107;47.652;19.016;2023-09-19T15:59:14;0.77;;;0.60;;
64682;SDS011;51107;47.652;19.016;2023-09-19T16:01:43;0.43;;;0.43;;
64682;SDS011;51107;47.652;19.016;2023-09-19T16:04:12;0.80;;;0.77;;
64682;SDS011;51107;47.652;19.016;2023-09-19T16:06:41;0.85;;;0.65;;
64682;SDS011;51107;47.652;19.016;2023-09-19T16:09:09;1.02;;;0.80;;